Time;durP1;ratioP1;P1;durP2;ratioP2;P2;SDS_P1;SDS_P2;PMS_P1;PMS_P2;Temp;Humidity;BMP_temperature;BMP_pressure;BME280_temperature;BME280_humidity;BME280_pressure;Samples;Min_cycle;Max_cycle;Signal;HPM_P1;HPM_P2
2023/06/20 00:01:00;;;;;;;18.90;10.43;;;;;;;18.86;82.83;98977.19;4944261;29;20062;-90
2023/06/20 00:03:26;;;;;;;19.02;11.15;;;;;;;18.71;84.87;98972.66;4944380;29;20043;-91
2023/06/20 00:05:53;;;;;;;18.83;11.43;;;;;;;18.74;87.17;98986.84;4942393;29;20051;-90
2023/06/20 00:08:19;;;;;;;18.63;11.00;;;;;;;18.81;87.53;98992.78;4941180;29;20057;-91
2023/06/20 00:10:45;;;;;;;18.10;10.43;;;;;;;18.70;88.58;98984.41;4946840;28;20123;-90
2023/06/20 00:13:11;;;;;;;19.88;10.75;;;;;;;18.74;88.52;98991.38;4943277;28;20083;-91
2023/06/20 00:15:37;;;;;;;20.48;11.70;;;;;;;18.63;88.21;98968.59;4943544;28;20044;-90
2023/06/20 00:18:02;;;;;;;21.23;11.38;;;;;;;18.78;87.27;98982.16;4944519;29;20048;-92
2023/06/20 00:20:30;;;;;;;16.38;11.38;;;;;;;18.63;86.78;98962.34;4946755;29;20082;-90
2023/06/20 00:22:57;;;;;;;21.48;11.20;;;;;;;18.72;85.79;98969.03;4941632;29;20039;-93
2023/06/20 00:25:23;;;;;;;20.27;10.18;;;;;;;18.65;86.19;98961.28;4952940;29;20071;-91
2023/06/20 00:27:49;;;;;;;22.73;11.40;;;;;;;18.78;86.96;98982.16;4945917;29;20126;-92
2023/06/20 00:30:15;;;;;;;23.05;11.77;;;;;;;18.74;88.15;98977.91;4943517;29;20135;-92
2023/06/20 00:32:41;;;;;;;22.25;12.20;;;;;;;18.75;88.42;98980.47;4946315;29;20520;-91
2023/06/20 00:35:08;;;;;;;32.25;12.82;;;;;;;18.63;89.12;98965.91;4953957;29;20051;-92
2023/06/20 00:37:36;;;;;;;21.08;11.95;;;;;;;18.71;89.29;98986.13;4954991;29;20102;-91
2023/06/20 00:40:08;;;;;;;20.63;11.60;;;;;;;18.66;89.97;98981.88;4943184;29;20091;-91
2023/06/20 00:42:34;;;;;;;22.23;12.25;;;;;;;18.59;89.76;98972.41;4947308;28;20043;-90
2023/06/20 00:45:00;;;;;;;26.23;12.38;;;;;;;18.45;93.21;98973.22;4943938;29;20051;-90
2023/06/20 00:47:27;;;;;;;22.15;11.77;;;;;;;18.44;92.89;98965.19;4943030;28;20038;-92
2023/06/20 00:49:53;;;;;;;21.25;12.55;;;;;;;18.55;91.56;98986.16;4945105;29;20099;-90
2023/06/20 00:52:21;;;;;;;25.25;11.93;;;;;;;18.42;91.96;98977.88;4943761;29;20106;-91
2023/06/20 00:54:48;;;;;;;21.77;13.57;;;;;;;18.50;92.24;98988.19;4942912;29;20051;-91
2023/06/20 00:57:16;;;;;;;23.75;13.05;;;;;;;18.36;91.86;98954.00;4946024;29;20049;-92
2023/06/20 00:59:43;;;;;;;21.30;11.90;;;;;;;18.35;91.63;98965.72;4952329;29;20040;-92
2023/06/20 01:02:10;;;;;;;21.75;11.85;;;;;;;18.29;91.91;98952.59;4942865;28;20048;-91
2023/06/20 01:04:36;;;;;;;20.65;13.20;;;;;;;18.31;92.58;98958.78;4946758;29;20569;-92
2023/06/20 01:07:10;;;;;;;24.27;13.57;;;;;;;18.33;93.07;98973.03;4944980;29;20552;-92
2023/06/20 01:09:44;;;;;;;25.20;12.73;;;;;;;18.29;93.36;98976.84;4947993;29;20071;-90
2023/06/20 01:12:21;;;;;;;23.23;12.45;;;;;;;18.18;93.55;98972.91;4955365;28;20097;-92
2023/06/20 01:14:57;;;;;;;28.55;13.35;;;;;;;18.11;93.31;98966.13;4943659;29;21251;-92
2023/06/20 01:17:28;;;;;;;27.35;13.25;;;;;;;18.09;94.44;98970.72;4939226;29;20498;-92
2023/06/20 01:20:04;;;;;;;25.92;13.10;;;;;;;18.12;93.06;98972.38;4942787;29;20130;-89
2023/06/20 01:22:51;;;;;;;25.13;13.45;;;;;;;18.09;92.99;98983.31;4943817;28;20135;-90
2023/06/20 01:25:31;;;;;;;24.92;12.77;;;;;;;18.08;92.09;98977.03;4945698;29;20155;-90
2023/06/20 01:28:06;;;;;;;26.63;13.50;;;;;;;18.02;92.94;98972.88;4944480;29;20106;-90
2023/06/20 01:30:39;;;;;;;28.38;13.52;;;;;;;18.02;93.09;98977.38;4952561;29;20044;-91
2023/06/20 01:33:08;;;;;;;22.02;12.73;;;;;;;17.98;96.44;98979.38;4952611;29;20168;-91
2023/06/20 01:35:36;;;;;;;27.38;13.23;;;;;;;17.82;97.76;98954.22;4946767;29;20445;-90
2023/06/20 01:38:08;;;;;;;25.95;13.30;;;;;;;17.78;97.42;98956.22;4943342;29;20496;-93
2023/06/20 01:40:36;;;;;;;30.48;13.55;;;;;;;17.89;98.00;98974.50;4957569;28;20061;-89
2023/06/20 01:43:06;;;;;;;28.42;13.23;;;;;;;17.73;99.06;98949.31;4946296;29;20048;-90
2023/06/20 01:45:36;;;;;;;26.67;12.98;;;;;;;17.79;99.16;98960.63;4946828;28;20043;-90
2023/06/20 01:48:05;;;;;;;25.98;12.38;;;;;;;17.68;99.25;98944.19;4958073;29;20047;-90
2023/06/20 01:50:31;;;;;;;;;;;;;;;17.81;100.00;98985.63;4950879;29;20489;-90
2023/06/20 01:52:59;;;;;;;28.83;13.50;;;;;;;17.70;100.00;98968.31;4957165;29;19954;-92
2023/06/20 01:55:29;;;;;;;24.77;13.90;;;;;;;17.56;100.00;98950.22;4950576;29;20054;-90
2023/06/20 01:57:57;;;;;;;26.92;13.75;;;;;;;17.54;100.00;98976.31;4950237;28;20493;-92
2023/06/20 02:00:24;;;;;;;;;;;;;;;17.49;100.00;98978.38;4950195;29;20054;-92
2023/06/20 02:02:51;;;;;;;26.67;13.95;;;;;;;17.29;100.00;98949.84;4947113;29;19919;-92
2023/06/20 02:05:18;;;;;;;31.17;14.05;;;;;;;17.36;100.00;98959.31;4946666;29;20069;-92
2023/06/20 02:07:46;;;;;;;30.70;14.90;;;;;;;17.32;100.00;98971.19;4949331;28;20130;-91
2023/06/20 02:10:14;;;;;;;27.98;13.82;;;;;;;17.18;100.00;98963.84;4957629;28;20040;-92
2023/06/20 02:12:43;;;;;;;27.95;14.07;;;;;;;17.19;100.00;98971.78;4949394;29;20043;-92
2023/06/20 02:15:10;;;;;;;28.73;13.77;;;;;;;17.25;100.00;98976.00;4947532;28;20039;-92
2023/06/20 02:17:38;;;;;;;26.48;13.82;;;;;;;17.25;100.00;98973.31;4953463;29;20110;-91
2023/06/20 02:20:05;;;;;;;26.40;13.63;;;;;;;17.18;100.00;98967.38;4951436;29;20494;-91
2023/06/20 02:22:32;;;;;;;25.90;14.52;;;;;;;17.22;100.00;98974.34;4951068;29;20421;-90
2023/06/20 02:25:05;;;;;;;29.25;14.80;;;;;;;17.15;100.00;98962.16;4950424;28;20194;-90
2023/06/20 02:27:32;;;;;;;30.33;14.73;;;;;;;17.12;100.00;98959.63;4949631;29;20047;-93
2023/06/20 02:30:00;;;;;;;29.42;14.35;;;;;;;16.97;100.00;98947.84;4951084;28;20036;-91
2023/06/20 02:32:28;;;;;;;;;;;;;;;17.11;100.00;98965.06;4950082;29;20047;-90
2023/06/20 02:34:56;;;;;;;31.13;13.70;;;;;;;17.09;100.00;98970.56;4950044;29;19930;-91
2023/06/20 02:37:24;;;;;;;31.92;15.73;;;;;;;17.05;100.00;98955.53;4950374;29;20103;-92
2023/06/20 02:39:50;;;;;;;28.85;14.38;;;;;;;17.07;100.00;98964.38;4948277;29;20039;-89
2023/06/20 02:42:17;;;;;;;31.95;15.13;;;;;;;17.03;100.00;98952.03;4951937;29;20035;-90
2023/06/20 02:44:43;;;;;;;29.17;15.38;;;;;;;17.08;100.00;98949.13;4948061;29;20520;-91
2023/06/20 02:47:19;;;;;;;32.33;14.75;;;;;;;17.08;100.00;98947.28;4952744;28;20110;-91
2023/06/20 02:49:55;;;;;;;27.60;14.50;;;;;;;16.96;100.00;98930.00;4957857;29;20043;-89
2023/06/20 02:52:30;;;;;;;29.77;15.20;;;;;;;17.09;100.00;98932.03;4958235;29;20115;-91
2023/06/20 02:55:07;;;;;;;32.83;15.65;;;;;;;17.02;100.00;98924.31;4950696;28;20023;-91
2023/06/20 02:57:37;;;;;;;33.05;16.25;;;;;;;17.09;100.00;98937.41;4945089;29;20031;-90
2023/06/20 03:00:09;;;;;;;30.80;15.35;;;;;;;17.29;100.00;98939.97;4947604;29;20023;-90
2023/06/20 03:02:41;;;;;;;35.95;16.02;;;;;;;17.31;100.00;98932.69;4953194;29;20036;-91
2023/06/20 03:05:10;;;;;;;34.92;15.32;;;;;;;17.49;100.00;98946.13;4946614;29;20032;-91
2023/06/20 03:07:38;;;;;;;30.40;14.95;;;;;;;17.44;100.00;98924.84;4948337;29;20433;-91
2023/06/20 03:10:06;;;;;;;30.13;15.48;;;;;;;17.65;100.00;98947.03;4947912;29;20051;-90
2023/06/20 03:12:32;;;;;;;34.90;15.40;;;;;;;17.68;100.00;98946.88;4946377;29;20047;-91
2023/06/20 03:14:57;;;;;;;33.50;15.52;;;;;;;17.75;100.00;98942.91;4949426;29;20043;-92
2023/06/20 03:17:23;;;;;;;35.90;16.23;;;;;;;17.69;100.00;98945.06;4945636;28;20039;-92
2023/06/20 03:19:50;;;;;;;31.95;15.95;;;;;;;17.53;100.00;98945.88;4946677;29;20075;-91
2023/06/20 03:22:16;;;;;;;35.22;15.65;;;;;;;17.40;100.00;98942.94;4946439;29;20043;-89
2023/06/20 03:24:42;;;;;;;31.40;15.45;;;;;;;17.43;100.00;98964.28;4948144;29;20114;-90
2023/06/20 03:27:08;;;;;;;33.13;15.95;;;;;;;17.24;100.00;98948.28;4948079;29;20047;-92
2023/06/20 03:29:34;;;;;;;31.58;15.75;;;;;;;17.30;100.00;98967.69;4948145;29;20523;-90
2023/06/20 03:32:00;;;;;;;35.45;16.08;;;;;;;17.23;100.00;98959.94;4942972;29;20035;-91
2023/06/20 03:34:26;;;;;;;33.85;15.77;;;;;;;17.03;100.00;98936.78;4947901;28;20035;-88
2023/06/20 03:36:54;;;;;;;33.30;15.75;;;;;;;17.15;100.00;98969.34;4946771;29;20397;-92
2023/06/20 03:39:19;;;;;;;32.70;15.77;;;;;;;17.11;100.00;98970.44;4949094;29;20043;-93
2023/06/20 03:41:45;;;;;;;32.83;15.80;;;;;;;16.96;100.00;98959.53;4947974;29;20046;-89
2023/06/20 03:44:11;;;;;;;32.38;16.23;;;;;;;16.89;100.00;98949.16;4948450;29;20039;-92
2023/06/20 03:46:38;;;;;;;31.08;14.75;;;;;;;16.92;100.00;98957.97;4946270;29;20051;-90
2023/06/20 03:49:04;;;;;;;31.67;14.55;;;;;;;17.11;100.00;98965.06;4950899;29;20041;-92
2023/06/20 03:51:30;;;;;;;32.60;15.50;;;;;;;17.29;100.00;98972.22;4951864;28;20040;-91
2023/06/20 03:53:57;;;;;;;29.52;14.70;;;;;;;17.33;100.00;98963.03;4945274;29;20048;-91
2023/06/20 03:56:23;;;;;;;34.22;15.25;;;;;;;17.48;100.00;98982.00;4943425;29;20043;-92
2023/06/20 03:58:49;;;;;;;31.33;15.07;;;;;;;17.32;100.00;98955.06;4951111;29;20565;-92
2023/06/20 04:01:15;;;;;;;30.80;15.15;;;;;;;17.39;100.00;98977.97;4942557;29;20040;-93
2023/06/20 04:03:40;;;;;;;31.85;14.73;;;;;;;17.45;100.00;98981.22;4946340;29;20046;-91
2023/06/20 04:06:06;;;;;;;31.48;15.65;;;;;;;17.39;100.00;98981.56;4944259;29;20055;-92
2023/06/20 04:08:32;;;;;;;30.25;15.82;;;;;;;17.26;100.00;98956.22;4948286;28;20080;-92
2023/06/20 04:10:59;;;;;;;30.15;13.80;;;;;;;17.29;100.00;98966.84;4945259;29;20039;-90
2023/06/20 04:13:25;;;;;;;29.92;15.45;;;;;;;17.34;100.00;98971.97;4960835;28;20040;-93
2023/06/20 04:15:51;;;;;;;28.27;14.50;;;;;;;17.40;100.00;98963.59;4945866;28;20054;-92
2023/06/20 04:18:17;;;;;;;30.67;14.07;;;;;;;17.53;100.00;98985.34;4956217;29;20039;-93
2023/06/20 04:20:43;;;;;;;30.67;14.68;;;;;;;17.52;100.00;98997.94;4946434;29;20035;-92
2023/06/20 04:23:09;;;;;;;27.80;13.80;;;;;;;17.56;100.00;99006.69;4944618;29;20170;-92
2023/06/20 04:25:35;;;;;;;31.58;14.00;;;;;;;17.39;100.00;98976.19;4944213;29;20405;-92
2023/06/20 04:28:03;;;;;;;26.77;14.40;;;;;;;17.60;100.00;99000.19;4946945;29;20114;-92
2023/06/20 04:30:28;;;;;;;26.38;14.10;;;;;;;17.51;100.00;98982.72;4943177;29;20509;-91
2023/06/20 04:32:54;;;;;;;28.73;14.07;;;;;;;17.50;100.00;98983.69;4946918;29;20047;-93
2023/06/20 04:35:20;;;;;;;26.08;13.38;;;;;;;17.60;100.00;98998.38;4946642;29;20072;-91
2023/06/20 04:37:51;;;;;;;25.42;13.10;;;;;;;17.74;100.00;99015.59;4941932;28;20043;-93
2023/06/20 04:40:17;;;;;;;24.52;13.82;;;;;;;17.70;100.00;99009.53;4947075;29;20087;-92
2023/06/20 04:42:45;;;;;;;28.60;14.27;;;;;;;17.83;100.00;99018.72;4945204;28;20047;-93
2023/06/20 04:45:12;;;;;;;23.35;12.80;;;;;;;17.76;100.00;98997.56;4943053;29;20036;-93
2023/06/20 04:47:39;;;;;;;29.58;14.00;;;;;;;17.92;100.00;99013.81;4944987;29;20044;-93
2023/06/20 04:50:06;;;;;;;26.52;13.88;;;;;;;18.13;100.00;99028.81;4953364;29;20398;-94
2023/06/20 04:52:32;;;;;;;25.30;12.82;;;;;;;18.45;100.00;99026.16;4948634;29;20051;-91
2023/06/20 04:55:02;;;;;;;23.92;13.93;;;;;;;18.86;100.00;99025.72;4949535;28;20075;-93
2023/06/20 04:57:28;;;;;;;25.27;14.07;;;;;;;19.32;100.00;99019.47;4943843;29;20035;-91
2023/06/20 04:59:54;;;;;;;24.50;13.63;;;;;;;19.54;97.87;99019.97;4944059;29;20558;-92
2023/06/20 05:02:21;;;;;;;27.42;12.95;;;;;;;19.95;91.28;99023.81;4949105;29;20043;-92
2023/06/20 05:04:47;;;;;;;26.90;14.23;;;;;;;20.20;86.05;99021.34;4946742;29;20043;-93
2023/06/20 05:07:13;;;;;;;23.95;13.10;;;;;;;20.42;80.39;99022.69;4945931;29;20046;-91
2023/06/20 05:09:39;;;;;;;24.80;12.93;;;;;;;20.58;78.39;99009.97;4946506;29;20470;-93
2023/06/20 05:12:05;;;;;;;26.20;12.82;;;;;;;20.77;77.52;99025.00;4944971;29;20043;-93
2023/06/20 05:14:31;;;;;;;20.23;12.45;;;;;;;21.02;76.71;99026.97;4940553;29;20043;-93
2023/06/20 05:16:57;;;;;;;22.00;12.25;;;;;;;21.30;75.00;99026.00;4949577;29;20557;-92
2023/06/20 05:19:24;;;;;;;18.98;11.73;;;;;;;21.36;73.82;99032.81;4950658;29;20059;-93
2023/06/20 05:21:50;;;;;;;22.52;13.00;;;;;;;21.38;73.26;99025.47;4949778;28;20055;-92
2023/06/20 05:24:16;;;;;;;20.63;11.32;;;;;;;21.73;72.88;99031.25;4952993;29;20040;-94
2023/06/20 05:26:42;;;;;;;19.85;10.88;;;;;;;21.70;71.29;99023.31;4950241;29;20082;-92
2023/06/20 05:29:07;;;;;;;15.50;10.10;;;;;;;21.45;71.23;99034.97;4949689;29;20036;-94
2023/06/20 05:31:38;;;;;;;18.17;10.95;;;;;;;20.86;73.14;99032.50;4948073;28;20039;-92
2023/06/20 05:34:04;;;;;;;20.05;10.82;;;;;;;21.10;73.04;99038.13;4950869;29;20504;-90
2023/06/20 05:36:31;;;;;;;17.05;10.93;;;;;;;20.96;74.51;99039.03;4954519;29;20074;-92
2023/06/20 05:38:58;;;;;;;17.63;11.07;;;;;;;21.14;74.58;99042.34;4944896;28;20051;-92
2023/06/20 05:41:24;;;;;;;17.95;10.93;;;;;;;21.29;72.67;99035.06;4939779;29;20044;-93
2023/06/20 05:43:50;;;;;;;17.15;10.52;;;;;;;21.35;72.57;99018.44;4950996;29;20449;-91
2023/06/20 05:46:16;;;;;;;16.00;11.07;;;;;;;20.91;74.12;99030.38;4947865;29;20051;-92
2023/06/20 05:48:43;;;;;;;19.00;11.55;;;;;;;20.91;75.65;99042.03;4944249;29;20588;-92
2023/06/20 05:51:12;;;;;;;18.83;10.70;;;;;;;21.35;73.70;99037.38;4949015;28;20066;-92
2023/06/20 05:53:41;;;;;;;16.27;10.35;;;;;;;21.73;71.26;99020.41;4944476;29;20101;-92
2023/06/20 05:56:07;;;;;;;17.88;10.98;;;;;;;21.90;71.47;99011.09;4944877;29;20040;-93
2023/06/20 05:58:33;;;;;;;16.55;10.68;;;;;;;21.49;72.29;99031.94;4947553;29;20055;-93
2023/06/20 06:01:01;;;;;;;20.02;10.98;;;;;;;21.60;71.30;99000.53;4961001;29;20051;-96
2023/06/20 06:03:27;;;;;;;20.40;11.85;;;;;;;21.19;72.93;99012.31;4961173;29;20079;-94
2023/06/20 06:05:53;;;;;;;16.92;10.98;;;;;;;21.34;72.87;99032.94;4961459;29;20081;-95
2023/06/20 06:08:19;;;;;;;17.40;10.10;;;;;;;21.77;71.64;99011.06;4946296;29;20043;-94
2023/06/20 06:10:47;;;;;;;17.90;10.23;;;;;;;22.15;69.92;99011.09;4940292;29;20138;-94
2023/06/20 06:13:12;;;;;;;17.58;11.43;;;;;;;21.25;71.88;99020.00;4952044;29;20051;-93
2023/06/20 06:15:38;;;;;;;19.83;11.48;;;;;;;21.59;73.38;99028.59;4960958;29;20080;-93
2023/06/20 06:18:04;;;;;;;16.58;10.50;;;;;;;22.14;70.43;99017.50;4960159;29;20516;-93
2023/06/20 06:20:30;;;;;;;17.02;10.60;;;;;;;22.40;68.39;99000.38;4959952;29;20059;-95
2023/06/20 06:22:56;;;;;;;18.35;11.38;;;;;;;23.02;65.78;99026.63;4951067;29;20047;-94
2023/06/20 06:25:22;;;;;;;16.52;11.13;;;;;;;21.72;70.47;99021.38;4952071;28;20102;-94
2023/06/20 06:27:49;;;;;;;17.00;10.95;;;;;;;21.67;71.30;99010.00;4949275;29;20075;-91
2023/06/20 06:30:16;;;;;;;24.55;11.40;;;;;;;21.89;70.03;99009.38;4950331;29;20078;-94
2023/06/20 06:32:44;;;;;;;15.82;10.82;;;;;;;22.08;70.35;99000.84;4955357;28;20139;-93
2023/06/20 06:35:11;;;;;;;16.50;10.30;;;;;;;22.72;67.90;99014.31;4947643;29;20055;-93
2023/06/20 06:37:40;;;;;;;16.88;10.75;;;;;;;22.75;65.91;99012.25;4945284;29;20043;-94
2023/06/20 06:40:07;;;;;;;18.00;11.13;;;;;;;22.94;65.49;99000.91;4950234;29;20493;-94
2023/06/20 06:42:33;;;;;;;16.77;10.40;;;;;;;22.88;64.17;99016.75;4945151;29;20549;-93
2023/06/20 06:45:01;;;;;;;16.48;10.90;;;;;;;22.64;65.24;98987.78;4947163;29;20123;-95
2023/06/20 06:47:27;;;;;;;21.67;10.50;;;;;;;22.91;63.75;98994.84;4943588;29;20043;-92
2023/06/20 06:49:52;;;;;;;18.58;10.95;;;;;;;23.16;63.83;99005.63;4960152;28;20068;-92
2023/06/20 06:52:18;;;;;;;15.65;10.68;;;;;;;23.22;61.63;98998.84;4949247;29;20144;-94
2023/06/20 06:54:44;;;;;;;15.45;10.35;;;;;;;23.35;62.47;98988.78;4949376;29;20070;-93
2023/06/20 06:57:10;;;;;;;17.48;10.70;;;;;;;23.63;62.38;98997.53;4949910;29;20054;-94
2023/06/20 06:59:36;;;;;;;19.23;11.65;;;;;;;23.32;64.19;99020.75;4951468;28;20067;-92
2023/06/20 07:02:05;;;;;;;17.35;10.55;;;;;;;23.63;61.37;99008.41;4970249;28;20505;-94
2023/06/20 07:04:31;;;;;;;15.95;10.13;;;;;;;24.08;58.99;99010.41;4943323;29;20046;-93
2023/06/20 07:06:56;;;;;;;18.92;10.20;;;;;;;24.00;60.01;98997.41;4945210;29;20048;-93
2023/06/20 07:09:22;;;;;;;17.88;10.52;;;;;;;24.38;58.89;99031.56;4948473;29;20043;-94
2023/06/20 07:11:48;;;;;;;19.27;11.93;;;;;;;24.46;58.35;99006.47;4949674;29;20134;-94
2023/06/20 07:14:14;;;;;;;19.02;11.77;;;;;;;24.79;57.72;99016.50;4946204;29;20047;-93
2023/06/20 07:16:40;;;;;;;19.73;11.60;;;;;;;24.74;57.09;99007.84;4955904;28;20523;-93
2023/06/20 07:19:07;;;;;;;20.77;11.25;;;;;;;24.52;57.45;99001.44;4946356;29;20505;-93
2023/06/20 07:21:33;;;;;;;19.42;11.90;;;;;;;24.57;57.90;99020.97;4946261;29;20055;-93
2023/06/20 07:23:59;;;;;;;17.35;11.52;;;;;;;24.80;57.37;99008.19;4947414;28;20115;-94
2023/06/20 07:26:25;;;;;;;23.42;12.07;;;;;;;25.33;56.97;99040.16;4948255;28;20047;-92
2023/06/20 07:28:50;;;;;;;21.73;12.20;;;;;;;25.54;55.17;99032.03;4947240;28;20473;-94
2023/06/20 07:31:17;;;;;;;21.65;12.23;;;;;;;25.67;55.05;99031.00;4941907;29;20171;-93
2023/06/20 07:33:43;;;;;;;20.58;12.25;;;;;;;25.83;54.63;99021.38;4948424;29;20039;-92
2023/06/20 07:36:10;;;;;;;20.33;12.75;;;;;;;25.62;54.37;99012.31;4943305;29;20042;-93
2023/06/20 07:38:36;;;;;;;18.30;12.37;;;;;;;25.93;55.95;99043.25;4943731;29;20046;-92
2023/06/20 07:41:02;;;;;;;21.75;13.32;;;;;;;25.65;54.62;99039.28;4948680;28;20134;-92
2023/06/20 07:43:28;;;;;;;19.33;12.85;;;;;;;25.41;55.88;99034.06;4942659;29;20524;-91
2023/06/20 07:45:54;;;;;;;20.92;13.40;;;;;;;25.03;56.51;99043.53;4953366;29;20577;-90
2023/06/20 07:48:22;;;;;;;24.65;13.40;;;;;;;25.27;56.62;99048.84;4945844;28;20047;-92
2023/06/20 07:50:48;;;;;;;23.50;13.85;;;;;;;25.45;56.24;99043.69;4946634;28;20043;-92
2023/06/20 07:53:15;;;;;;;24.25;13.85;;;;;;;25.74;54.79;99032.19;4956862;29;20445;-93
2023/06/20 07:55:41;;;;;;;22.27;13.45;;;;;;;25.47;54.46;99033.53;4947312;28;20039;-93
2023/06/20 07:58:08;;;;;;;22.65;13.07;;;;;;;25.56;55.31;99027.31;4943241;29;20059;-94
2023/06/20 08:00:33;;;;;;;23.25;13.80;;;;;;;25.99;54.76;99053.63;4951686;29;20414;-92
2023/06/20 08:02:59;;;;;;;34.42;14.68;;;;;;;25.95;55.09;99057.63;4953363;28;20039;-92
2023/06/20 08:05:25;;;;;;;23.88;14.23;;;;;;;26.12;54.76;99041.69;4952919;29;20505;-93
2023/06/20 08:07:51;;;;;;;27.48;14.00;;;;;;;26.34;52.93;99027.03;4948049;29;20051;-92
2023/06/20 08:10:18;;;;;;;39.35;14.55;;;;;;;26.41;53.28;99025.47;4946777;29;20031;-93
2023/06/20 08:12:44;;;;;;;30.33;14.90;;;;;;;26.64;51.77;99035.22;4940927;29;20506;-92
2023/06/20 08:15:10;;;;;;;26.08;14.05;;;;;;;27.02;51.04;99050.03;4949075;29;20079;-93
2023/06/20 08:17:37;;;;;;;27.42;14.43;;;;;;;27.05;50.32;99024.31;4952366;29;20043;-92
2023/06/20 08:20:06;;;;;;;26.80;14.43;;;;;;;27.33;49.67;99058.16;4947567;28;20059;-91
2023/06/20 08:22:32;;;;;;;36.35;14.30;;;;;;;27.40;49.65;99048.38;4947294;28;20141;-93
2023/06/20 08:24:58;;;;;;;28.70;14.10;;;;;;;27.50;48.94;99045.69;4949757;29;20129;-93
2023/06/20 08:27:26;;;;;;;29.25;14.90;;;;;;;26.91;48.69;99060.16;4950098;28;20043;-93
2023/06/20 08:29:52;;;;;;;31.10;14.88;;;;;;;27.01;49.40;99041.97;4948930;28;20048;-92
2023/06/20 08:32:18;;;;;;;28.45;16.00;;;;;;;27.27;48.43;99061.44;4943322;29;20054;-93
2023/06/20 08:34:43;;;;;;;27.05;14.45;;;;;;;27.20;49.76;99047.47;4950125;28;20138;-92
2023/06/20 08:37:09;;;;;;;26.48;13.95;;;;;;;27.14;48.26;99039.84;4948137;29;20040;-94
2023/06/20 08:39:35;;;;;;;29.13;15.00;;;;;;;26.83;47.32;99037.16;4942682;29;20040;-94
2023/06/20 08:42:01;;;;;;;28.13;14.07;;;;;;;27.34;46.58;99040.75;4945779;28;20126;-94
2023/06/20 08:44:29;;;;;;;24.83;12.75;;;;;;;27.77;43.02;99049.56;4947815;29;20565;-93
2023/06/20 08:46:57;;;;;;;27.80;13.82;;;;;;;27.62;42.32;99040.94;4947846;28;20048;-94
2023/06/20 08:49:22;;;;;;;;;;;;;;;27.95;42.87;99066.13;4944419;29;20054;-94
2023/06/20 08:51:49;;;;;;;27.80;13.27;;;;;;;28.23;42.68;99053.41;4954187;28;19922;-94
2023/06/20 08:54:19;;;;;;;27.40;13.38;;;;;;;28.42;43.05;99049.78;4940273;29;20044;-94
2023/06/20 08:56:47;;;;;;;24.08;12.98;;;;;;;28.33;39.28;99054.25;4940537;29;20673;-94
2023/06/20 08:59:13;;;;;;;22.15;12.73;;;;;;;28.19;40.14;99047.41;4948927;29;20040;-95
2023/06/20 09:01:40;;;;;;;29.63;13.95;;;;;;;27.99;40.98;99062.09;4948531;29;20039;-94
2023/06/20 09:04:06;;;;;;;24.58;13.63;;;;;;;28.07;41.18;99048.56;4941695;29;20103;-93
2023/06/20 09:06:37;;;;;;;30.48;13.27;;;;;;;27.89;41.21;99051.19;4943365;29;20043;-91
2023/06/20 09:09:03;;;;;;;25.88;12.40;;;;;;;27.78;41.91;99038.50;4941794;29;20044;-95
2023/06/20 09:11:34;;;;;;;24.73;13.43;;;;;;;28.33;39.97;99065.22;4946775;29;20103;-93
2023/06/20 09:14:01;;;;;;;25.98;12.27;;;;;;;28.52;40.04;99055.25;4942906;29;20044;-95
2023/06/20 09:16:28;;;;;;;20.92;11.32;;;;;;;28.82;37.45;99046.78;4943695;29;20044;-93
2023/06/20 09:18:59;;;;;;;23.63;11.77;;;;;;;29.08;35.20;99037.84;4949080;29;20157;-93
2023/06/20 09:21:25;;;;;;;26.73;11.07;;;;;;;29.34;35.36;99046.22;4944831;29;20052;-92
2023/06/20 09:24:01;;;;;;;19.85;11.07;;;;;;;29.53;35.02;99042.47;4945554;28;20055;-92
2023/06/20 09:26:28;;;;;;;26.45;11.40;;;;;;;29.84;34.56;99053.94;4946445;28;20067;-95
2023/06/20 09:29:04;;;;;;;18.70;11.13;;;;;;;29.81;34.52;99035.06;4945828;29;20043;-94
2023/06/20 09:31:39;;;;;;;20.73;10.07;;;;;;;29.41;33.34;99043.75;4945132;29;20183;-93
2023/06/20 09:34:09;;;;;;;17.13;10.00;;;;;;;29.65;34.91;99041.22;4947655;28;20047;-92
2023/06/20 09:36:35;;;;;;;21.90;10.40;;;;;;;29.66;34.38;99031.13;4944412;29;20044;-93
2023/06/20 09:39:01;;;;;;;16.35;9.75;;;;;;;29.10;34.66;99029.50;4947441;29;20560;-93
2023/06/20 09:41:27;;;;;;;18.25;9.23;;;;;;;29.23;34.02;99044.56;4942506;29;20036;-92
2023/06/20 09:43:53;;;;;;;16.45;9.27;;;;;;;29.37;33.67;99031.38;4944770;29;20039;-92
2023/06/20 09:46:19;;;;;;;16.15;8.75;;;;;;;29.40;34.31;99047.47;4941933;29;20070;-93
2023/06/20 09:48:45;;;;;;;21.67;9.30;;;;;;;28.99;34.60;99044.22;4941756;29;20043;-92
2023/06/20 09:51:12;;;;;;;15.68;9.05;;;;;;;28.95;34.18;99037.34;4945125;29;20082;-91
2023/06/20 09:53:45;;;;;;;13.50;8.27;;;;;;;29.02;34.96;99019.31;4944995;28;20063;-91
2023/06/20 09:56:12;;;;;;;15.70;8.02;;;;;;;29.43;32.08;99037.06;4951037;29;20051;-92
2023/06/20 09:58:44;;;;;;;16.50;7.87;;;;;;;29.59;33.55;99006.22;4945920;29;20118;-91
2023/06/20 10:01:13;;;;;;;13.05;7.60;;;;;;;29.69;31.92;99007.03;4942707;29;20134;-89
2023/06/20 10:03:40;;;;;;;13.70;7.72;;;;;;;29.82;32.40;99009.38;4948172;29;20394;-93
2023/06/20 10:06:06;;;;;;;14.85;7.80;;;;;;;29.69;33.05;99003.44;4944930;28;20047;-93
2023/06/20 10:08:34;;;;;;;12.82;7.35;;;;;;;29.64;30.96;99028.53;4945793;29;20505;-93
2023/06/20 10:11:00;;;;;;;12.75;7.00;;;;;;;29.87;29.48;99034.44;4957035;29;20055;-93
2023/06/20 10:13:27;;;;;;;13.15;6.93;;;;;;;29.40;29.45;99009.97;4947608;29;20049;-92
2023/06/20 10:15:53;;;;;;;11.52;6.85;;;;;;;29.73;29.11;99032.25;4946983;29;20516;-93
2023/06/20 10:18:33;;;;;;;11.52;6.28;;;;;;;29.97;29.30;99033.47;4954437;29;20044;-93
2023/06/20 10:21:01;;;;;;;10.77;6.70;;;;;;;29.87;28.62;99017.13;4946173;29;20052;-93
2023/06/20 10:23:29;;;;;;;10.13;6.38;;;;;;;30.00;29.45;99034.03;4943978;29;20054;-94
2023/06/20 10:25:58;;;;;;;12.85;6.93;;;;;;;29.69;31.01;99023.50;4948609;29;20079;-92
2023/06/20 10:28:25;;;;;;;11.40;6.65;;;;;;;29.52;30.42;99012.50;4945745;28;20047;-93
2023/06/20 10:30:57;;;;;;;9.90;6.85;;;;;;;29.88;30.04;98999.63;4949192;28;20094;-92
2023/06/20 10:33:24;;;;;;;14.15;7.20;;;;;;;29.80;30.85;98992.22;4949474;28;20046;-93
2023/06/20 10:35:50;;;;;;;13.48;6.70;;;;;;;30.06;29.09;98980.44;4954440;29;20071;-94
2023/06/20 10:38:16;;;;;;;11.23;6.55;;;;;;;29.60;28.16;98988.78;4952218;29;20127;-92
2023/06/20 10:40:42;;;;;;;14.40;6.38;;;;;;;29.67;29.38;98989.88;4949153;29;20138;-92
2023/06/20 10:43:15;;;;;;;22.35;7.40;;;;;;;29.90;29.10;98981.16;4945220;29;20044;-95
2023/06/20 10:45:52;;;;;;;8.93;5.82;;;;;;;30.30;28.38;98977.00;4946909;29;20071;-94
2023/06/20 10:48:18;;;;;;;10.35;5.75;;;;;;;30.09;27.67;98972.72;4948257;29;20040;-92
2023/06/20 10:50:44;;;;;;;9.55;6.10;;;;;;;30.10;28.26;98968.97;4948734;29;20039;-93
2023/06/20 10:53:12;;;;;;;9.70;5.55;;;;;;;30.34;28.38;98955.56;4951982;29;20130;-91
2023/06/20 10:55:39;;;;;;;9.20;5.90;;;;;;;30.43;28.88;98957.38;4951434;29;20043;-93
2023/06/20 10:58:05;;;;;;;13.48;5.97;;;;;;;30.30;28.74;98987.97;4943932;29;20046;-93
2023/06/20 11:00:32;;;;;;;8.73;6.32;;;;;;;29.95;29.68;98975.19;4942970;29;20498;-94
2023/06/20 11:02:58;;;;;;;9.65;6.05;;;;;;;30.17;29.38;98976.56;4954941;29;20074;-92
2023/06/20 11:05:26;;;;;;;11.20;6.28;;;;;;;29.87;29.38;98967.78;4950902;29;20039;-94
2023/06/20 11:07:57;;;;;;;10.48;6.50;;;;;;;29.89;30.41;98983.03;4954504;29;20050;-93
2023/06/20 11:10:27;;;;;;;10.50;5.93;;;;;;;30.03;30.56;98961.53;4946271;29;20525;-94
2023/06/20 11:12:53;;;;;;;10.00;6.07;;;;;;;30.54;29.56;98980.91;4946278;29;20054;-94
2023/06/20 11:15:22;;;;;;;9.07;6.05;;;;;;;30.51;29.06;98949.16;4945389;29;20035;-94
2023/06/20 11:17:49;;;;;;;12.73;6.85;;;;;;;30.45;29.99;98953.44;4951961;28;20063;-93